Terminal Aerodrome Forecast
Issued by NWS

Home | Current Version | Previous Version | Text Only | Print | Product List | Glossary On
Versions: 1 2 3 4 5 6 7 8 9 10 11 12 13 14 15 16 17 18
000
FTUS41 KBGM 211730
TAFITH
TAF
KITH 211730Z 2118/2218 21008KT P6SM SCT045 SCT100
      TEMPO 2118/2120 BKN045 BKN100
     FM220000 16005KT P6SM SCT250
      TEMPO 2209/2212 5SM BR
     FM221300 19009KT P6SM BKN110
     FM221600 22015KT P6SM -TSRA BKN040CB=

USA.gov is the U.S. government's official web portal to all federal, state and local government web resources and services.